sensor_id;sensor_type;location;lat;lon;timestamp;P1;durP1;ratioP1;P2;durP2;ratioP2
239;SDS011;104;53.590;10.004;2023-06-04T00:00:24;12.50;;;5.13;;
239;SDS011;104;53.590;10.004;2023-06-04T00:02:51;11.00;;;5.10;;
239;SDS011;104;53.590;10.004;2023-06-04T00:05:19;20.40;;;7.30;;
239;SDS011;104;53.590;10.004;2023-06-04T00:07:47;15.77;;;5.50;;
239;SDS011;104;53.590;10.004;2023-06-04T00:10:14;15.30;;;5.90;;
239;SDS011;104;53.590;10.004;2023-06-04T00:12:43;10.33;;;4.67;;
239;SDS011;104;53.590;10.004;2023-06-04T00:15:10;9.50;;;4.87;;
239;SDS011;104;53.590;10.004;2023-06-04T00:17:37;11.40;;;4.87;;
239;SDS011;104;53.590;10.004;2023-06-04T00:20:05;13.33;;;4.23;;
239;SDS011;104;53.590;10.004;2023-06-04T00:22:32;7.43;;;4.30;;
239;SDS011;104;53.590;10.004;2023-06-04T00:24:59;10.30;;;4.40;;
239;SDS011;104;53.590;10.004;2023-06-04T00:27:26;14.33;;;4.77;;
239;SDS011;104;53.590;10.004;2023-06-04T00:29:55;12.70;;;4.47;;
239;SDS011;104;53.590;10.004;2023-06-04T00:32:22;11.20;;;5.13;;
239;SDS011;104;53.590;10.004;2023-06-04T00:34:50;12.33;;;4.73;;
239;SDS011;104;53.590;10.004;2023-06-04T00:37:17;7.63;;;4.07;;
239;SDS011;104;53.590;10.004;2023-06-04T00:39:44;10.27;;;4.90;;
239;SDS011;104;53.590;10.004;2023-06-04T00:42:12;12.10;;;5.17;;
239;SDS011;104;53.590;10.004;2023-06-04T00:44:39;12.00;;;5.30;;
239;SDS011;104;53.590;10.004;2023-06-04T00:47:11;8.20;;;4.40;;
239;SDS011;104;53.590;10.004;2023-06-04T00:49:38;11.30;;;4.67;;
239;SDS011;104;53.590;10.004;2023-06-04T00:52:06;22.60;;;8.47;;
239;SDS011;104;53.590;10.004;2023-06-04T00:54:34;20.57;;;7.07;;
239;SDS011;104;53.590;10.004;2023-06-04T00:57:03;10.50;;;4.97;;
239;SDS011;104;53.590;10.004;2023-06-04T00:59:30;12.93;;;5.20;;
239;SDS011;104;53.590;10.004;2023-06-04T01:02:00;15.27;;;5.60;;
239;SDS011;104;53.590;10.004;2023-06-04T01:04:30;18.40;;;6.50;;
239;SDS011;104;53.590;10.004;2023-06-04T01:07:00;17.33;;;5.40;;
239;SDS011;104;53.590;10.004;2023-06-04T01:09:27;17.83;;;6.80;;
239;SDS011;104;53.590;10.004;2023-06-04T01:11:55;15.80;;;5.53;;
239;SDS011;104;53.590;10.004;2023-06-04T01:14:24;27.07;;;8.03;;
239;SDS011;104;53.590;10.004;2023-06-04T01:16:53;14.60;;;6.00;;
239;SDS011;104;53.590;10.004;2023-06-04T01:19:37;18.20;;;5.40;;
239;SDS011;104;53.590;10.004;2023-06-04T01:22:17;19.40;;;7.40;;
239;SDS011;104;53.590;10.004;2023-06-04T01:24:46;35.87;;;24.67;;
239;SDS011;104;53.590;10.004;2023-06-04T01:27:20;8.93;;;4.80;;
239;SDS011;104;53.590;10.004;2023-06-04T01:29:48;12.60;;;4.57;;
239;SDS011;104;53.590;10.004;2023-06-04T01:32:16;25.50;;;6.90;;
239;SDS011;104;53.590;10.004;2023-06-04T01:34:46;16.10;;;6.67;;
239;SDS011;104;53.590;10.004;2023-06-04T01:37:13;15.63;;;6.77;;
239;SDS011;104;53.590;10.004;2023-06-04T01:39:41;13.83;;;5.80;;
239;SDS011;104;53.590;10.004;2023-06-04T01:42:08;19.73;;;6.70;;
239;SDS011;104;53.590;10.004;2023-06-04T01:44:36;16.03;;;6.73;;
239;SDS011;104;53.590;10.004;2023-06-04T01:47:03;20.87;;;7.60;;
239;SDS011;104;53.590;10.004;2023-06-04T01:49:31;16.70;;;6.30;;
239;SDS011;104;53.590;10.004;2023-06-04T01:52:00;19.03;;;7.00;;
239;SDS011;104;53.590;10.004;2023-06-04T01:54:27;13.60;;;5.80;;
239;SDS011;104;53.590;10.004;2023-06-04T01:56:55;14.20;;;5.43;;
239;SDS011;104;53.590;10.004;2023-06-04T01:59:22;18.37;;;6.43;;
239;SDS011;104;53.590;10.004;2023-06-04T02:01:50;26.07;;;7.80;;
239;SDS011;104;53.590;10.004;2023-06-04T02:04:17;20.80;;;7.50;;
239;SDS011;104;53.590;10.004;2023-06-04T02:06:46;18.27;;;7.27;;
239;SDS011;104;53.590;10.004;2023-06-04T02:09:15;26.93;;;8.27;;
239;SDS011;104;53.590;10.004;2023-06-04T02:11:42;16.87;;;7.03;;
239;SDS011;104;53.590;10.004;2023-06-04T02:14:09;17.50;;;5.23;;
239;SDS011;104;53.590;10.004;2023-06-04T02:16:37;12.13;;;5.60;;
239;SDS011;104;53.590;10.004;2023-06-04T02:19:04;13.80;;;5.60;;
239;SDS011;104;53.590;10.004;2023-06-04T02:21:31;26.93;;;7.63;;
239;SDS011;104;53.590;10.004;2023-06-04T02:23:58;12.77;;;5.83;;
239;SDS011;104;53.590;10.004;2023-06-04T02:26:27;25.23;;;7.90;;
239;SDS011;104;53.590;10.004;2023-06-04T02:28:54;11.20;;;5.37;;
239;SDS011;104;53.590;10.004;2023-06-04T02:31:21;21.27;;;5.90;;
239;SDS011;104;53.590;10.004;2023-06-04T02:33:49;17.73;;;6.87;;
239;SDS011;104;53.590;10.004;2023-06-04T02:36:17;16.93;;;6.50;;
239;SDS011;104;53.590;10.004;2023-06-04T02:38:44;17.30;;;7.00;;
239;SDS011;104;53.590;10.004;2023-06-04T02:41:13;18.50;;;8.07;;
239;SDS011;104;53.590;10.004;2023-06-04T02:43:42;17.10;;;7.40;;
239;SDS011;104;53.590;10.004;2023-06-04T02:46:09;15.57;;;6.20;;
239;SDS011;104;53.590;10.004;2023-06-04T02:48:36;15.60;;;6.07;;
239;SDS011;104;53.590;10.004;2023-06-04T02:51:04;15.37;;;6.83;;
239;SDS011;104;53.590;10.004;2023-06-04T02:53:35;26.07;;;10.10;;
239;SDS011;104;53.590;10.004;2023-06-04T02:56:02;20.13;;;7.13;;
239;SDS011;104;53.590;10.004;2023-06-04T02:58:29;25.63;;;9.17;;
239;SDS011;104;53.590;10.004;2023-06-04T03:00:58;16.00;;;6.73;;
239;SDS011;104;53.590;10.004;2023-06-04T03:03:26;16.53;;;5.73;;
239;SDS011;104;53.590;10.004;2023-06-04T03:05:53;17.13;;;5.00;;
239;SDS011;104;53.590;10.004;2023-06-04T03:08:21;23.57;;;8.27;;
239;SDS011;104;53.590;10.004;2023-06-04T03:10:48;16.40;;;5.83;;
239;SDS011;104;53.590;10.004;2023-06-04T03:13:15;27.57;;;8.60;;
239;SDS011;104;53.590;10.004;2023-06-04T03:15:42;10.03;;;5.20;;
239;SDS011;104;53.590;10.004;2023-06-04T03:18:13;12.43;;;5.50;;
239;SDS011;104;53.590;10.004;2023-06-04T03:20:40;20.57;;;7.63;;
239;SDS011;104;53.590;10.004;2023-06-04T03:23:07;20.43;;;6.37;;
239;SDS011;104;53.590;10.004;2023-06-04T03:25:34;17.77;;;6.83;;
239;SDS011;104;53.590;10.004;2023-06-04T03:28:02;17.80;;;7.07;;
239;SDS011;104;53.590;10.004;2023-06-04T03:30:29;19.77;;;7.33;;
239;SDS011;104;53.590;10.004;2023-06-04T03:32:56;16.97;;;6.47;;
239;SDS011;104;53.590;10.004;2023-06-04T03:35:25;15.60;;;6.37;;
239;SDS011;104;53.590;10.004;2023-06-04T03:37:52;13.20;;;6.83;;
239;SDS011;104;53.590;10.004;2023-06-04T03:40:20;16.03;;;7.00;;
239;SDS011;104;53.590;10.004;2023-06-04T03:42:47;21.73;;;9.43;;
239;SDS011;104;53.590;10.004;2023-06-04T03:45:14;17.27;;;6.80;;
239;SDS011;104;53.590;10.004;2023-06-04T03:47:42;19.50;;;8.83;;
239;SDS011;104;53.590;10.004;2023-06-04T03:50:09;9.43;;;4.83;;
239;SDS011;104;53.590;10.004;2023-06-04T03:52:38;15.47;;;6.03;;
239;SDS011;104;53.590;10.004;2023-06-04T03:55:05;22.37;;;11.43;;
239;SDS011;104;53.590;10.004;2023-06-04T03:57:33;21.23;;;6.77;;
239;SDS011;104;53.590;10.004;2023-06-04T04:00:00;23.37;;;7.77;;
239;SDS011;104;53.590;10.004;2023-06-04T04:02:29;24.20;;;9.00;;
239;SDS011;104;53.590;10.004;2023-06-04T04:04:56;15.10;;;6.10;;
239;SDS011;104;53.590;10.004;2023-06-04T04:07:23;10.50;;;5.20;;
239;SDS011;104;53.590;10.004;2023-06-04T04:09:52;18.77;;;7.07;;
239;SDS011;104;53.590;10.004;2023-06-04T04:12:19;29.67;;;8.90;;
239;SDS011;104;53.590;10.004;2023-06-04T04:14:46;15.40;;;6.50;;
239;SDS011;104;53.590;10.004;2023-06-04T04:17:14;17.33;;;6.70;;
239;SDS011;104;53.590;10.004;2023-06-04T04:19:41;30.33;;;7.30;;
239;SDS011;104;53.590;10.004;2023-06-04T04:22:10;28.83;;;11.17;;
239;SDS011;104;53.590;10.004;2023-06-04T04:24:38;19.90;;;8.80;;
239;SDS011;104;53.590;10.004;2023-06-04T04:27:06;20.93;;;8.30;;
239;SDS011;104;53.590;10.004;2023-06-04T04:29:36;24.30;;;10.00;;
239;SDS011;104;53.590;10.004;2023-06-04T04:32:03;20.53;;;7.37;;
239;SDS011;104;53.590;10.004;2023-06-04T04:34:36;22.60;;;7.33;;
239;SDS011;104;53.590;10.004;2023-06-04T04:37:04;20.73;;;6.83;;
239;SDS011;104;53.590;10.004;2023-06-04T04:39:34;27.03;;;9.00;;
239;SDS011;104;53.590;10.004;2023-06-04T04:42:02;15.83;;;7.33;;
239;SDS011;104;53.590;10.004;2023-06-04T04:44:30;18.80;;;7.10;;
239;SDS011;104;53.590;10.004;2023-06-04T04:46:58;11.37;;;5.53;;
239;SDS011;104;53.590;10.004;2023-06-04T04:49:25;22.83;;;8.37;;
239;SDS011;104;53.590;10.004;2023-06-04T04:51:53;25.37;;;9.23;;
239;SDS011;104;53.590;10.004;2023-06-04T04:54:20;23.70;;;9.13;;
239;SDS011;104;53.590;10.004;2023-06-04T04:56:48;18.60;;;8.23;;
239;SDS011;104;53.590;10.004;2023-06-04T04:59:15;22.40;;;9.40;;
239;SDS011;104;53.590;10.004;2023-06-04T05:01:43;25.13;;;13.47;;
239;SDS011;104;53.590;10.004;2023-06-04T05:04:11;38.27;;;10.13;;
239;SDS011;104;53.590;10.004;2023-06-04T05:06:38;29.50;;;13.30;;
239;SDS011;104;53.590;10.004;2023-06-04T05:09:06;24.63;;;10.50;;
239;SDS011;104;53.590;10.004;2023-06-04T05:11:33;19.50;;;11.10;;
239;SDS011;104;53.590;10.004;2023-06-04T05:14:02;22.90;;;12.17;;
239;SDS011;104;53.590;10.004;2023-06-04T05:16:29;25.50;;;12.47;;
239;SDS011;104;53.590;10.004;2023-06-04T05:18:58;24.43;;;9.10;;
239;SDS011;104;53.590;10.004;2023-06-04T05:21:25;19.17;;;8.07;;
239;SDS011;104;53.590;10.004;2023-06-04T05:23:53;18.43;;;8.60;;
239;SDS011;104;53.590;10.004;2023-06-04T05:26:21;23.00;;;12.10;;
239;SDS011;104;53.590;10.004;2023-06-04T05:28:48;26.73;;;11.17;;
239;SDS011;104;53.590;10.004;2023-06-04T05:31:15;21.37;;;8.93;;
239;SDS011;104;53.590;10.004;2023-06-04T05:33:43;21.70;;;9.70;;
239;SDS011;104;53.590;10.004;2023-06-04T05:36:12;14.53;;;8.30;;
239;SDS011;104;53.590;10.004;2023-06-04T05:38:39;17.50;;;7.00;;
239;SDS011;104;53.590;10.004;2023-06-04T05:41:07;15.10;;;6.70;;
239;SDS011;104;53.590;10.004;2023-06-04T05:43:34;23.57;;;9.13;;
239;SDS011;104;53.590;10.004;2023-06-04T05:46:02;24.50;;;8.00;;
239;SDS011;104;53.590;10.004;2023-06-04T05:48:31;22.97;;;9.50;;
239;SDS011;104;53.590;10.004;2023-06-04T05:50:58;19.20;;;7.10;;
239;SDS011;104;53.590;10.004;2023-06-04T05:53:27;21.90;;;9.10;;
239;SDS011;104;53.590;10.004;2023-06-04T05:55:54;19.50;;;9.60;;
239;SDS011;104;53.590;10.004;2023-06-04T05:58:21;21.83;;;11.63;;
239;SDS011;104;53.590;10.004;2023-06-04T06:00:48;19.07;;;11.90;;
239;SDS011;104;53.590;10.004;2023-06-04T06:03:16;26.40;;;13.13;;
239;SDS011;104;53.590;10.004;2023-06-04T06:05:44;23.80;;;15.57;;
239;SDS011;104;53.590;10.004;2023-06-04T06:08:11;28.00;;;17.70;;
239;SDS011;104;53.590;10.004;2023-06-04T06:10:40;17.03;;;11.60;;
239;SDS011;104;53.590;10.004;2023-06-04T06:13:07;20.40;;;9.40;;
239;SDS011;104;53.590;10.004;2023-06-04T06:15:34;16.00;;;8.10;;
239;SDS011;104;53.590;10.004;2023-06-04T06:18:02;15.87;;;9.07;;
239;SDS011;104;53.590;10.004;2023-06-04T06:20:31;36.30;;;16.50;;
239;SDS011;104;53.590;10.004;2023-06-04T06:23:00;22.10;;;15.63;;
239;SDS011;104;53.590;10.004;2023-06-04T06:25:32;26.93;;;17.30;;
239;SDS011;104;53.590;10.004;2023-06-04T06:28:00;30.97;;;15.93;;
239;SDS011;104;53.590;10.004;2023-06-04T06:30:28;24.20;;;11.20;;
239;SDS011;104;53.590;10.004;2023-06-04T06:32:55;19.63;;;10.47;;
239;SDS011;104;53.590;10.004;2023-06-04T06:35:23;27.40;;;10.53;;
239;SDS011;104;53.590;10.004;2023-06-04T06:37:51;26.83;;;8.00;;
239;SDS011;104;53.590;10.004;2023-06-04T06:40:19;22.23;;;9.50;;
239;SDS011;104;53.590;10.004;2023-06-04T06:42:47;23.13;;;7.97;;
239;SDS011;104;53.590;10.004;2023-06-04T06:45:17;29.73;;;9.77;;
239;SDS011;104;53.590;10.004;2023-06-04T06:47:44;25.47;;;9.63;;
239;SDS011;104;53.590;10.004;2023-06-04T06:50:12;21.27;;;11.23;;
239;SDS011;104;53.590;10.004;2023-06-04T06:52:39;24.53;;;12.33;;
239;SDS011;104;53.590;10.004;2023-06-04T06:55:07;16.37;;;11.63;;
239;SDS011;104;53.590;10.004;2023-06-04T06:57:35;26.33;;;11.77;;
239;SDS011;104;53.590;10.004;2023-06-04T07:00:03;25.60;;;10.97;;
239;SDS011;104;53.590;10.004;2023-06-04T07:02:32;24.53;;;9.83;;
239;SDS011;104;53.590;10.004;2023-06-04T07:05:00;46.43;;;15.93;;
239;SDS011;104;53.590;10.004;2023-06-04T07:07:27;23.30;;;12.73;;
239;SDS011;104;53.590;10.004;2023-06-04T07:09:55;17.47;;;11.27;;
239;SDS011;104;53.590;10.004;2023-06-04T07:12:22;35.97;;;16.10;;
239;SDS011;104;53.590;10.004;2023-06-04T07:14:49;19.93;;;10.50;;
239;SDS011;104;53.590;10.004;2023-06-04T07:17:17;19.23;;;12.63;;
239;SDS011;104;53.590;10.004;2023-06-04T07:19:45;22.70;;;12.47;;
239;SDS011;104;53.590;10.004;2023-06-04T07:22:13;26.10;;;11.40;;
239;SDS011;104;53.590;10.004;2023-06-04T07:24:40;14.97;;;8.37;;
239;SDS011;104;53.590;10.004;2023-06-04T07:27:11;21.00;;;11.60;;
239;SDS011;104;53.590;10.004;2023-06-04T07:29:38;28.60;;;14.17;;
239;SDS011;104;53.590;10.004;2023-06-04T07:32:06;14.90;;;10.03;;
239;SDS011;104;53.590;10.004;2023-06-04T07:34:33;15.13;;;8.93;;
239;SDS011;104;53.590;10.004;2023-06-04T07:37:03;31.13;;;14.10;;
239;SDS011;104;53.590;10.004;2023-06-04T07:39:31;22.10;;;11.20;;
239;SDS011;104;53.590;10.004;2023-06-04T07:41:58;16.63;;;7.63;;
239;SDS011;104;53.590;10.004;2023-06-04T07:44:26;19.70;;;8.13;;
239;SDS011;104;53.590;10.004;2023-06-04T07:47:00;26.33;;;11.37;;
239;SDS011;104;53.590;10.004;2023-06-04T07:49:27;26.57;;;11.60;;
239;SDS011;104;53.590;10.004;2023-06-04T07:51:54;61.80;;;58.77;;
239;SDS011;104;53.590;10.004;2023-06-04T07:54:24;44.03;;;40.67;;
239;SDS011;104;53.590;10.004;2023-06-04T07:56:51;28.77;;;15.60;;
239;SDS011;104;53.590;10.004;2023-06-04T07:59:21;27.93;;;20.47;;
239;SDS011;104;53.590;10.004;2023-06-04T08:01:49;38.47;;;23.50;;
239;SDS011;104;53.590;10.004;2023-06-04T08:04:16;22.07;;;15.70;;
239;SDS011;104;53.590;10.004;2023-06-04T08:06:43;30.23;;;24.40;;
239;SDS011;104;53.590;10.004;2023-06-04T08:09:11;34.57;;;29.80;;
239;SDS011;104;53.590;10.004;2023-06-04T08:11:41;25.53;;;21.63;;
239;SDS011;104;53.590;10.004;2023-06-04T08:14:09;35.33;;;23.67;;
239;SDS011;104;53.590;10.004;2023-06-04T08:16:38;37.27;;;21.03;;
239;SDS011;104;53.590;10.004;2023-06-04T08:19:05;33.77;;;21.47;;
239;SDS011;104;53.590;10.004;2023-06-04T08:21:33;25.37;;;12.80;;
239;SDS011;104;53.590;10.004;2023-06-04T08:24:01;20.93;;;8.50;;
239;SDS011;104;53.590;10.004;2023-06-04T08:26:28;21.93;;;9.63;;
239;SDS011;104;53.590;10.004;2023-06-04T08:28:57;28.47;;;11.10;;
239;SDS011;104;53.590;10.004;2023-06-04T08:31:24;15.30;;;7.30;;
239;SDS011;104;53.590;10.004;2023-06-04T08:33:51;12.10;;;6.20;;
239;SDS011;104;53.590;10.004;2023-06-04T08:36:19;15.03;;;7.87;;
239;SDS011;104;53.590;10.004;2023-06-04T08:38:46;23.33;;;8.97;;
239;SDS011;104;53.590;10.004;2023-06-04T08:41:16;21.03;;;10.30;;
239;SDS011;104;53.590;10.004;2023-06-04T08:43:45;17.60;;;8.93;;
239;SDS011;104;53.590;10.004;2023-06-04T08:46:15;22.77;;;9.57;;
239;SDS011;104;53.590;10.004;2023-06-04T08:48:44;36.93;;;13.13;;
239;SDS011;104;53.590;10.004;2023-06-04T08:51:11;24.43;;;10.27;;
239;SDS011;104;53.590;10.004;2023-06-04T08:53:40;25.97;;;9.70;;
239;SDS011;104;53.590;10.004;2023-06-04T08:56:19;25.57;;;11.47;;
239;SDS011;104;53.590;10.004;2023-06-04T08:58:47;24.50;;;10.93;;
239;SDS011;104;53.590;10.004;2023-06-04T09:01:16;20.83;;;11.17;;
239;SDS011;104;53.590;10.004;2023-06-04T09:03:44;38.07;;;18.50;;
239;SDS011;104;53.590;10.004;2023-06-04T09:06:11;28.67;;;14.87;;
239;SDS011;104;53.590;10.004;2023-06-04T09:08:40;31.87;;;11.77;;
239;SDS011;104;53.590;10.004;2023-06-04T09:11:10;24.90;;;13.80;;
239;SDS011;104;53.590;10.004;2023-06-04T09:13:38;26.57;;;10.77;;
239;SDS011;104;53.590;10.004;2023-06-04T09:16:05;30.07;;;14.93;;
239;SDS011;104;53.590;10.004;2023-06-04T09:18:34;34.07;;;13.03;;
239;SDS011;104;53.590;10.004;2023-06-04T09:21:02;24.33;;;9.33;;
239;SDS011;104;53.590;10.004;2023-06-04T09:23:30;32.70;;;13.00;;
239;SDS011;104;53.590;10.004;2023-06-04T09:26:05;17.37;;;10.80;;
239;SDS011;104;53.590;10.004;2023-06-04T09:28:34;27.47;;;12.70;;
239;SDS011;104;53.590;10.004;2023-06-04T09:31:01;29.60;;;13.60;;
239;SDS011;104;53.590;10.004;2023-06-04T09:33:29;13.43;;;10.03;;
239;SDS011;104;53.590;10.004;2023-06-04T09:35:58;23.33;;;11.37;;
239;SDS011;104;53.590;10.004;2023-06-04T09:38:32;36.23;;;15.93;;
239;SDS011;104;53.590;10.004;2023-06-04T09:41:00;29.33;;;15.50;;
239;SDS011;104;53.590;10.004;2023-06-04T09:43:29;29.00;;;16.70;;
239;SDS011;104;53.590;10.004;2023-06-04T09:46:07;27.90;;;17.40;;
239;SDS011;104;53.590;10.004;2023-06-04T09:48:35;45.63;;;26.70;;
239;SDS011;104;53.590;10.004;2023-06-04T09:51:07;26.90;;;17.80;;
239;SDS011;104;53.590;10.004;2023-06-04T09:53:35;28.53;;;21.73;;
239;SDS011;104;53.590;10.004;2023-06-04T09:56:03;40.93;;;17.63;;
239;SDS011;104;53.590;10.004;2023-06-04T09:58:31;36.40;;;29.20;;
239;SDS011;104;53.590;10.004;2023-06-04T10:01:00;33.23;;;21.03;;
239;SDS011;104;53.590;10.004;2023-06-04T10:03:29;26.73;;;20.30;;
239;SDS011;104;53.590;10.004;2023-06-04T10:05:58;24.07;;;18.33;;
239;SDS011;104;53.590;10.004;2023-06-04T10:08:27;27.63;;;23.80;;
239;SDS011;104;53.590;10.004;2023-06-04T10:10:56;32.77;;;25.50;;
239;SDS011;104;53.590;10.004;2023-06-04T10:13:26;37.20;;;31.23;;
239;SDS011;104;53.590;10.004;2023-06-04T10:15:55;35.10;;;33.40;;
239;SDS011;104;53.590;10.004;2023-06-04T10:18:23;47.37;;;37.33;;
239;SDS011;104;53.590;10.004;2023-06-04T10:20:52;49.03;;;46.63;;
239;SDS011;104;53.590;10.004;2023-06-04T10:23:20;70.37;;;66.63;;
239;SDS011;104;53.590;10.004;2023-06-04T10:25:50;92.80;;;88.33;;
239;SDS011;104;53.590;10.004;2023-06-04T10:28:19;67.40;;;64.13;;
239;SDS011;104;53.590;10.004;2023-06-04T10:30:46;116.77;;;111.17;;
239;SDS011;104;53.590;10.004;2023-06-04T10:33:16;103.20;;;98.20;;
239;SDS011;104;53.590;10.004;2023-06-04T10:35:45;139.07;;;132.37;;
239;SDS011;104;53.590;10.004;2023-06-04T10:38:12;147.10;;;140.03;;
239;SDS011;104;53.590;10.004;2023-06-04T10:40:41;108.37;;;103.17;;
239;SDS011;104;53.590;10.004;2023-06-04T10:43:10;95.97;;;91.37;;
239;SDS011;104;53.590;10.004;2023-06-04T10:45:38;84.10;;;80.03;;
239;SDS011;104;53.590;10.004;2023-06-04T10:48:06;95.33;;;90.73;;
239;SDS011;104;53.590;10.004;2023-06-04T10:50:34;91.23;;;86.83;;
239;SDS011;104;53.590;10.004;2023-06-04T10:53:01;100.47;;;95.63;;
239;SDS011;104;53.590;10.004;2023-06-04T10:55:29;112.90;;;107.47;;
239;SDS011;104;53.590;10.004;2023-06-04T10:57:56;140.93;;;134.17;;
239;SDS011;104;53.590;10.004;2023-06-04T11:00:35;139.87;;;133.17;;
239;SDS011;104;53.590;10.004;2023-06-04T11:03:03;89.03;;;84.77;;
239;SDS011;104;53.590;10.004;2023-06-04T11:05:35;81.13;;;77.23;;
239;SDS011;104;53.590;10.004;2023-06-04T11:08:02;102.17;;;97.23;;
239;SDS011;104;53.590;10.004;2023-06-04T11:10:33;126.20;;;120.13;;
239;SDS011;104;53.590;10.004;2023-06-04T11:13:01;130.40;;;124.13;;
239;SDS011;104;53.590;10.004;2023-06-04T11:15:38;183.90;;;175.10;;
239;SDS011;104;53.590;10.004;2023-06-04T11:18:06;165.03;;;157.13;;
239;SDS011;104;53.590;10.004;2023-06-04T11:20:33;152.83;;;145.53;;
239;SDS011;104;53.590;10.004;2023-06-04T11:23:00;126.57;;;120.50;;
239;SDS011;104;53.590;10.004;2023-06-04T11:25:28;110.77;;;105.43;;
239;SDS011;104;53.590;10.004;2023-06-04T11:27:56;151.73;;;144.47;;
239;SDS011;104;53.590;10.004;2023-06-04T11:30:23;136.73;;;130.17;;
239;SDS011;104;53.590;10.004;2023-06-04T11:33:01;112.97;;;107.57;;
239;SDS011;104;53.590;10.004;2023-06-04T11:35:28;113.20;;;107.77;;
239;SDS011;104;53.590;10.004;2023-06-04T11:37:56;73.50;;;69.97;;
239;SDS011;104;53.590;10.004;2023-06-04T11:40:23;80.53;;;76.63;;
239;SDS011;104;53.590;10.004;2023-06-04T11:42:52;67.27;;;64.00;;
239;SDS011;104;53.590;10.004;2023-06-04T11:45:20;60.27;;;57.33;;
239;SDS011;104;53.590;10.004;2023-06-04T11:47:47;75.33;;;71.70;;
239;SDS011;104;53.590;10.004;2023-06-04T11:50:16;58.37;;;55.53;;
239;SDS011;104;53.590;10.004;2023-06-04T11:52:44;58.60;;;45.80;;
239;SDS011;104;53.590;10.004;2023-06-04T11:55:11;48.70;;;45.67;;
239;SDS011;104;53.590;10.004;2023-06-04T11:57:39;57.40;;;54.60;;
239;SDS011;104;53.590;10.004;2023-06-04T12:00:07;62.27;;;59.23;;
239;SDS011;104;53.590;10.004;2023-06-04T12:02:35;69.63;;;66.27;;
239;SDS011;104;53.590;10.004;2023-06-04T12:05:12;56.13;;;53.40;;
239;SDS011;104;53.590;10.004;2023-06-04T12:07:41;90.23;;;85.90;;
239;SDS011;104;53.590;10.004;2023-06-04T12:10:09;86.07;;;81.93;;
239;SDS011;104;53.590;10.004;2023-06-04T12:12:36;85.47;;;81.33;;
239;SDS011;104;53.590;10.004;2023-06-04T12:15:05;57.40;;;54.63;;
239;SDS011;104;53.590;10.004;2023-06-04T12:17:34;98.63;;;93.90;;
239;SDS011;104;53.590;10.004;2023-06-04T12:20:02;93.67;;;89.17;;
239;SDS011;104;53.590;10.004;2023-06-04T12:22:31;67.53;;;64.27;;
239;SDS011;104;53.590;10.004;2023-06-04T12:24:59;59.47;;;56.57;;
239;SDS011;104;53.590;10.004;2023-06-04T12:27:28;52.40;;;49.87;;
239;SDS011;104;53.590;10.004;2023-06-04T12:29:56;37.03;;;28.67;;
239;SDS011;104;53.590;10.004;2023-06-04T12:32:23;29.57;;;22.63;;
239;SDS011;104;53.590;10.004;2023-06-04T12:34:51;39.33;;;31.53;;
239;SDS011;104;53.590;10.004;2023-06-04T12:37:18;37.60;;;33.03;;
239;SDS011;104;53.590;10.004;2023-06-04T12:39:48;40.90;;;38.33;;
239;SDS011;104;53.590;10.004;2023-06-04T12:42:17;49.83;;;37.03;;
239;SDS011;104;53.590;10.004;2023-06-04T12:44:45;28.93;;;24.73;;
239;SDS011;104;53.590;10.004;2023-06-04T12:47:12;52.57;;;37.93;;
239;SDS011;104;53.590;10.004;2023-06-04T12:49:40;42.83;;;40.73;;
239;SDS011;104;53.590;10.004;2023-06-04T12:52:07;51.80;;;41.30;;
239;SDS011;104;53.590;10.004;2023-06-04T12:54:35;35.57;;;33.33;;
239;SDS011;104;53.590;10.004;2023-06-04T12:57:02;52.50;;;49.97;;
239;SDS011;104;53.590;10.004;2023-06-04T12:59:31;44.83;;;42.67;;
239;SDS011;104;53.590;10.004;2023-06-04T13:01:59;34.87;;;33.13;;
239;SDS011;104;53.590;10.004;2023-06-04T13:04:26;27.43;;;26.07;;
239;SDS011;104;53.590;10.004;2023-06-04T13:06:55;30.27;;;28.60;;
239;SDS011;104;53.590;10.004;2023-06-04T13:09:24;38.03;;;29.63;;
239;SDS011;104;53.590;10.004;2023-06-04T13:11:53;35.50;;;29.20;;
239;SDS011;104;53.590;10.004;2023-06-04T13:14:20;37.40;;;34.23;;
239;SDS011;104;53.590;10.004;2023-06-04T13:16:49;34.40;;;32.77;;
239;SDS011;104;53.590;10.004;2023-06-04T13:19:17;52.67;;;50.10;;
239;SDS011;104;53.590;10.004;2023-06-04T13:21:45;50.13;;;47.70;;
239;SDS011;104;53.590;10.004;2023-06-04T13:24:13;49.83;;;47.40;;
239;SDS011;104;53.590;10.004;2023-06-04T13:26:40;46.27;;;39.40;;
239;SDS011;104;53.590;10.004;2023-06-04T13:29:08;41.73;;;39.70;;
239;SDS011;104;53.590;10.004;2023-06-04T13:31:35;44.27;;;38.90;;
239;SDS011;104;53.590;10.004;2023-06-04T13:34:05;45.60;;;43.40;;
239;SDS011;104;53.590;10.004;2023-06-04T13:36:33;59.57;;;56.70;;
239;SDS011;104;53.590;10.004;2023-06-04T13:39:00;47.77;;;45.43;;
239;SDS011;104;53.590;10.004;2023-06-04T13:41:27;54.67;;;51.87;;
239;SDS011;104;53.590;10.004;2023-06-04T13:43:55;60.23;;;51.37;;
239;SDS011;104;53.590;10.004;2023-06-04T13:46:22;56.50;;;53.77;;
239;SDS011;104;53.590;10.004;2023-06-04T13:48:50;55.43;;;52.77;;
239;SDS011;104;53.590;10.004;2023-06-04T13:51:19;56.57;;;53.83;;
239;SDS011;104;53.590;10.004;2023-06-04T13:53:46;51.07;;;48.60;;
239;SDS011;104;53.590;10.004;2023-06-04T13:56:19;49.97;;;47.53;;
239;SDS011;104;53.590;10.004;2023-06-04T13:58:47;79.90;;;76.03;;
239;SDS011;104;53.590;10.004;2023-06-04T14:01:15;75.00;;;71.37;;
239;SDS011;104;53.590;10.004;2023-06-04T14:03:43;74.47;;;70.87;;
239;SDS011;104;53.590;10.004;2023-06-04T14:06:10;54.77;;;52.10;;
239;SDS011;104;53.590;10.004;2023-06-04T14:08:39;69.53;;;66.17;;
239;SDS011;104;53.590;10.004;2023-06-04T14:11:06;48.07;;;45.73;;
239;SDS011;104;53.590;10.004;2023-06-04T14:13:34;64.27;;;61.13;;
239;SDS011;104;53.590;10.004;2023-06-04T14:16:01;57.23;;;54.47;;
239;SDS011;104;53.590;10.004;2023-06-04T14:18:29;61.83;;;57.67;;
239;SDS011;104;53.590;10.004;2023-06-04T14:20:56;53.80;;;51.20;;
239;SDS011;104;53.590;10.004;2023-06-04T14:23:23;48.80;;;46.43;;
239;SDS011;104;53.590;10.004;2023-06-04T14:25:52;49.43;;;47.03;;
239;SDS011;104;53.590;10.004;2023-06-04T14:28:19;65.13;;;60.73;;
239;SDS011;104;53.590;10.004;2023-06-04T14:30:46;65.83;;;62.67;;
239;SDS011;104;53.590;10.004;2023-06-04T14:33:14;55.33;;;52.63;;
239;SDS011;104;53.590;10.004;2023-06-04T14:35:41;66.90;;;63.67;;
239;SDS011;104;53.590;10.004;2023-06-04T14:38:11;51.50;;;49.00;;
239;SDS011;104;53.590;10.004;2023-06-04T14:40:39;51.63;;;48.73;;
239;SDS011;104;53.590;10.004;2023-06-04T14:43:09;50.93;;;48.47;;
239;SDS011;104;53.590;10.004;2023-06-04T14:45:36;56.33;;;53.60;;
239;SDS011;104;53.590;10.004;2023-06-04T14:48:04;50.93;;;48.20;;
239;SDS011;104;53.590;10.004;2023-06-04T14:50:32;71.37;;;60.63;;
239;SDS011;104;53.590;10.004;2023-06-04T14:52:59;66.40;;;63.17;;
239;SDS011;104;53.590;10.004;2023-06-04T14:55:26;81.50;;;77.57;;
239;SDS011;104;53.590;10.004;2023-06-04T14:57:53;79.20;;;75.37;;
239;SDS011;104;53.590;10.004;2023-06-04T15:00:22;65.80;;;62.60;;
239;SDS011;104;53.590;10.004;2023-06-04T15:02:50;87.07;;;82.87;;
239;SDS011;104;53.590;10.004;2023-06-04T15:05:17;65.67;;;62.50;;
239;SDS011;104;53.590;10.004;2023-06-04T15:07:45;83.13;;;79.13;;
239;SDS011;104;53.590;10.004;2023-06-04T15:10:13;74.53;;;70.93;;